createdAt,value
2023-01-17T00:00:25.438Z,1.00
2023-01-17T00:02:52.835Z,1.17
2023-01-17T00:05:37.827Z,1.20
2023-01-17T00:08:24.145Z,1.10
2023-01-17T00:10:51.517Z,0.90
2023-01-17T00:13:18.928Z,0.98
2023-01-17T00:15:46.316Z,1.10
2023-01-17T00:18:13.731Z,1.05
2023-01-17T00:20:58.637Z,1.13
2023-01-17T00:23:56.600Z,1.20
2023-01-17T00:26:24.089Z,1.08
2023-01-17T00:28:50.489Z,1.20
2023-01-17T00:31:17.035Z,1.40
2023-01-17T00:33:43.513Z,1.38
2023-01-17T00:36:10.172Z,1.30
2023-01-17T00:38:38.619Z,1.30
2023-01-17T00:41:05.992Z,1.20
2023-01-17T00:43:51.070Z,1.20
2023-01-17T00:46:36.385Z,1.40
2023-01-17T00:49:21.924Z,1.20
2023-01-17T00:52:06.705Z,1.25
2023-01-17T00:54:53.300Z,1.30
2023-01-17T00:57:38.228Z,1.13
2023-01-17T01:00:24.377Z,1.20
2023-01-17T01:03:09.235Z,1.10
2023-01-17T01:05:55.394Z,1.10
2023-01-17T01:08:41.198Z,1.13
2023-01-17T01:11:28.400Z,1.08
2023-01-17T01:14:13.545Z,1.20
2023-01-17T01:16:58.859Z,1.10
2023-01-17T01:19:44.171Z,1.10
2023-01-17T01:22:28.895Z,1.25
2023-01-17T01:25:13.695Z,1.10
2023-01-17T01:28:00.191Z,1.30
2023-01-17T01:30:45.518Z,0.90
2023-01-17T01:33:19.101Z,0.80
2023-01-17T01:35:47.353Z,1.10
2023-01-17T01:38:14.733Z,0.90
2023-01-17T01:40:45.985Z,1.00
2023-01-17T01:43:15.727Z,0.73
2023-01-17T01:45:45.982Z,0.90
2023-01-17T01:48:21.868Z,0.70
2023-01-17T01:50:49.298Z,0.93
2023-01-17T01:53:16.676Z,0.90
2023-01-17T01:55:45.345Z,0.80
2023-01-17T01:58:15.976Z,0.82
2023-01-17T02:00:43.427Z,0.90
2023-01-17T02:03:11.502Z,0.80
2023-01-17T02:05:39.616Z,0.60
2023-01-17T02:08:08.545Z,0.80
2023-01-17T02:10:36.304Z,0.90
2023-01-17T02:13:03.768Z,0.88
2023-01-17T02:15:33.820Z,0.90
2023-01-17T02:18:06.175Z,0.90
2023-01-17T02:20:49.191Z,0.73
2023-01-17T02:23:51.736Z,0.80
2023-01-17T02:26:34.375Z,0.80
2023-01-17T02:29:14.031Z,0.82
2023-01-17T02:31:44.490Z,0.70
2023-01-17T02:34:15.145Z,0.98
2023-01-17T02:36:44.246Z,0.90
2023-01-17T02:39:14.605Z,0.80
2023-01-17T02:41:43.193Z,0.80
2023-01-17T02:44:10.636Z,0.70
2023-01-17T02:46:46.381Z,0.80
2023-01-17T02:49:13.832Z,0.80
2023-01-17T02:51:48.161Z,0.80
2023-01-17T02:54:30.187Z,0.90
2023-01-17T02:57:02.266Z,0.88
2023-01-17T02:59:35.393Z,0.90
2023-01-17T03:02:10.546Z,0.90
2023-01-17T03:04:39.878Z,0.85
2023-01-17T03:07:10.129Z,1.00
2023-01-17T03:12:05.235Z,0.80
2023-01-17T03:14:32.614Z,0.90
2023-01-17T03:17:00.017Z,0.90
2023-01-17T03:19:28.764Z,0.80
2023-01-17T03:21:56.182Z,0.90
2023-01-17T03:24:23.551Z,0.90
2023-01-17T03:26:50.925Z,0.75
2023-01-17T03:29:18.312Z,0.80
2023-01-17T03:31:46.479Z,0.82
2023-01-17T03:34:13.842Z,0.80
2023-01-17T03:36:42.637Z,0.90
2023-01-17T03:39:10.181Z,0.90
2023-01-17T03:41:37.569Z,0.90
2023-01-17T03:44:05.624Z,1.00
2023-01-17T03:46:33.064Z,0.90
2023-01-17T03:49:00.422Z,0.93
2023-01-17T03:51:27.931Z,0.80
2023-01-17T03:53:56.624Z,0.90
2023-01-17T03:56:24.036Z,1.00
2023-01-17T03:58:51.557Z,0.70
2023-01-17T04:01:19.007Z,0.88
2023-01-17T04:03:46.455Z,1.00
2023-01-17T04:06:13.832Z,0.80
2023-01-17T04:08:41.512Z,0.73
2023-01-17T04:11:10.210Z,0.80
2023-01-17T04:13:37.630Z,0.90
2023-01-17T04:16:05.633Z,0.80
2023-01-17T04:18:33.035Z,0.80
2023-01-17T04:21:00.433Z,1.00
2023-01-17T04:23:27.863Z,0.88
2023-01-17T04:25:55.236Z,0.77
2023-01-17T04:28:23.929Z,0.80
2023-01-17T04:30:51.427Z,0.80
2023-01-17T04:33:18.838Z,0.80
2023-01-17T04:35:46.331Z,0.75
2023-01-17T04:38:13.707Z,0.80
2023-01-17T04:40:41.109Z,0.90
2023-01-17T04:43:08.513Z,0.75
2023-01-17T04:45:38.661Z,0.50
2023-01-17T04:50:33.412Z,0.60
2023-01-17T04:53:00.867Z,0.52
2023-01-17T04:55:28.271Z,0.68
2023-01-17T04:57:55.658Z,0.50
2023-01-17T05:00:24.242Z,0.50
2023-01-17T05:02:53.144Z,0.50
2023-01-17T05:05:20.602Z,0.57
2023-01-17T05:07:54.245Z,0.50
2023-01-17T05:10:21.649Z,0.40
2023-01-17T05:12:54.784Z,0.40
2023-01-17T05:15:22.183Z,0.40
2023-01-17T05:17:49.574Z,0.40
2023-01-17T05:20:18.559Z,0.30
2023-01-17T05:22:47.230Z,0.40
2023-01-17T05:25:15.104Z,0.35
2023-01-17T05:27:42.503Z,0.35
2023-01-17T05:30:11.374Z,0.30
2023-01-17T05:32:38.786Z,0.30
2023-01-17T05:35:07.210Z,0.45
2023-01-17T05:37:35.966Z,0.35
2023-01-17T05:40:03.574Z,0.50
2023-01-17T05:42:30.960Z,0.30
2023-01-17T05:44:58.336Z,0.40
2023-01-17T05:47:25.708Z,0.30
2023-01-17T05:49:53.069Z,0.20
2023-01-17T05:52:20.503Z,0.35
2023-01-17T05:54:50.517Z,0.30
2023-01-17T05:57:18.024Z,0.43
2023-01-17T05:59:45.378Z,0.38
2023-01-17T06:02:12.786Z,0.40
2023-01-17T06:04:40.167Z,0.30
2023-01-17T06:07:07.580Z,0.40
2023-01-17T06:09:34.971Z,0.45
2023-01-17T06:12:03.791Z,0.30
2023-01-17T06:14:31.226Z,0.30
2023-01-17T06:16:58.614Z,0.52
2023-01-17T06:19:25.983Z,0.30
2023-01-17T06:21:53.370Z,0.20
2023-01-17T06:24:20.803Z,0.30
2023-01-17T06:26:48.191Z,0.30
2023-01-17T06:29:16.876Z,0.50
2023-01-17T06:31:44.251Z,0.40
2023-01-17T06:34:11.634Z,0.30
2023-01-17T06:36:39.086Z,0.40
2023-01-17T06:39:06.469Z,0.30
2023-01-17T06:41:33.845Z,0.38
2023-01-17T06:44:01.215Z,0.30
2023-01-17T06:46:30.021Z,0.40
2023-01-17T06:48:57.438Z,0.50
2023-01-17T06:51:24.900Z,0.32
2023-01-17T06:53:52.277Z,0.50
2023-01-17T06:56:19.686Z,0.82
2023-01-17T06:58:49.682Z,0.70
2023-01-17T07:01:17.251Z,0.50
2023-01-17T07:03:46.167Z,0.70
2023-01-17T07:06:13.595Z,0.52
2023-01-17T07:08:41.006Z,0.70
2023-01-17T07:11:08.741Z,0.88
2023-01-17T07:13:36.568Z,0.60
2023-01-17T07:16:04.184Z,0.60
2023-01-17T07:18:31.729Z,0.80
2023-01-17T07:21:00.522Z,0.70
2023-01-17T07:23:27.920Z,0.70
2023-01-17T07:28:16.042Z,0.90
2023-01-17T07:30:43.423Z,0.90
2023-01-17T07:33:10.793Z,1.20
2023-01-17T07:35:38.210Z,1.23
2023-01-17T07:38:11.228Z,3.08
2023-01-17T07:40:42.228Z,6.93
2023-01-17T07:43:13.931Z,6.60
2023-01-17T07:45:42.955Z,16.42
2023-01-17T07:48:10.394Z,23.13
2023-01-17T07:50:37.751Z,18.13
2023-01-17T07:53:06.651Z,15.75
2023-01-17T07:55:34.111Z,14.50
2023-01-17T07:58:03.051Z,13.30
2023-01-17T08:00:30.687Z,12.45
2023-01-17T08:02:58.164Z,11.68
2023-01-17T08:05:25.696Z,9.80
2023-01-17T08:07:53.114Z,9.48
2023-01-17T08:10:22.484Z,9.55
2023-01-17T08:12:50.511Z,18.40
2023-01-17T08:15:18.191Z,7.70
2023-01-17T08:17:48.701Z,7.40
2023-01-17T08:20:16.395Z,6.97
2023-01-17T08:22:43.790Z,7.38
2023-01-17T08:25:11.278Z,7.53
2023-01-17T08:27:40.006Z,6.97
2023-01-17T08:30:08.496Z,6.53
2023-01-17T08:32:35.911Z,6.15
2023-01-17T08:35:03.318Z,6.05
2023-01-17T08:37:30.718Z,5.38
2023-01-17T08:39:58.079Z,5.38
2023-01-17T08:42:25.472Z,4.82
2023-01-17T08:44:54.288Z,4.68
2023-01-17T08:47:21.687Z,4.25
2023-01-17T08:49:49.042Z,4.80
2023-01-17T08:52:16.420Z,4.22
2023-01-17T08:54:43.798Z,4.85
2023-01-17T08:57:11.198Z,4.70
2023-01-17T08:59:38.575Z,4.80
2023-01-17T09:02:14.750Z,4.65
2023-01-17T09:04:44.656Z,4.43
2023-01-17T09:07:12.043Z,4.03
2023-01-17T09:09:39.482Z,3.88
2023-01-17T09:12:07.485Z,3.60
2023-01-17T09:14:34.879Z,3.58
2023-01-17T09:17:02.442Z,4.05
2023-01-17T09:19:31.179Z,4.22
2023-01-17T09:21:58.569Z,4.70
2023-01-17T09:24:25.948Z,4.00
2023-01-17T09:26:53.359Z,44.28
2023-01-17T09:29:21.007Z,34.42
2023-01-17T09:31:48.665Z,27.67
2023-01-17T09:34:16.066Z,25.52
2023-01-17T09:36:44.896Z,21.38
2023-01-17T09:39:14.819Z,19.13
2023-01-17T09:41:46.862Z,17.63
2023-01-17T09:44:22.381Z,16.10
2023-01-17T09:46:50.020Z,16.25
2023-01-17T09:49:23.050Z,13.68
2023-01-17T09:51:51.752Z,12.82
2023-01-17T09:54:21.543Z,11.23
2023-01-17T09:56:51.731Z,10.75
2023-01-17T10:02:05.438Z,9.48
2023-01-17T10:04:41.695Z,8.38
2023-01-17T10:07:16.023Z,7.53
2023-01-17T10:09:50.295Z,8.32
2023-01-17T10:12:23.079Z,6.85
2023-01-17T10:14:57.421Z,5.72
2023-01-17T10:17:30.698Z,6.50
2023-01-17T10:20:04.817Z,6.55
2023-01-17T10:22:46.355Z,6.35
2023-01-17T10:25:23.996Z,5.95
2023-01-17T10:27:56.476Z,5.47
2023-01-17T10:30:24.443Z,5.93
2023-01-17T10:32:51.834Z,5.35
2023-01-17T10:35:22.074Z,4.40
2023-01-17T10:37:51.122Z,4.60
2023-01-17T10:40:20.653Z,3.70
2023-01-17T10:42:50.936Z,3.90
2023-01-17T10:45:20.861Z,4.25
2023-01-17T10:47:49.765Z,4.65
2023-01-17T10:50:18.103Z,4.25
2023-01-17T10:52:48.028Z,3.20
2023-01-17T10:55:25.229Z,3.47
2023-01-17T10:57:52.622Z,3.67
2023-01-17T11:00:29.779Z,3.60
2023-01-17T11:02:57.379Z,3.50
2023-01-17T11:05:26.506Z,3.78
2023-01-17T11:08:00.997Z,3.35
2023-01-17T11:10:39.778Z,3.13
2023-01-17T11:13:07.781Z,3.42
2023-01-17T11:15:36.023Z,2.60
2023-01-17T11:18:04.301Z,2.75
2023-01-17T11:20:34.195Z,2.72
2023-01-17T11:23:04.051Z,2.75
2023-01-17T11:25:33.817Z,2.75
2023-01-17T11:28:04.667Z,3.08
2023-01-17T11:30:32.047Z,2.72
2023-01-17T11:32:59.856Z,2.60
2023-01-17T11:35:28.890Z,2.58
2023-01-17T11:38:04.500Z,2.67
2023-01-17T11:40:32.753Z,2.60
2023-01-17T11:43:03.232Z,2.80
2023-01-17T11:45:31.080Z,2.38
2023-01-17T11:48:16.039Z,2.60
2023-01-17T11:50:45.488Z,2.25
2023-01-17T11:53:24.347Z,2.20
2023-01-17T11:56:00.147Z,2.42
2023-01-17T11:58:28.944Z,2.08
2023-01-17T12:01:01.870Z,2.38
2023-01-17T12:03:37.567Z,2.13
2023-01-17T12:06:08.258Z,2.35
2023-01-17T12:08:48.053Z,2.40
2023-01-17T12:11:19.604Z,2.20
2023-01-17T12:14:00.959Z,2.03
2023-01-17T12:16:38.119Z,2.20
2023-01-17T12:19:21.580Z,2.13
2023-01-17T12:21:53.079Z,2.30
2023-01-17T12:24:30.058Z,1.88
2023-01-17T12:27:00.376Z,2.15
2023-01-17T12:29:48.545Z,2.05
2023-01-17T12:32:30.632Z,2.45
2023-01-17T12:35:00.574Z,2.17
2023-01-17T12:37:32.655Z,2.00
2023-01-17T12:40:06.857Z,2.38
2023-01-17T12:42:36.161Z,2.45
2023-01-17T12:45:06.615Z,2.30
2023-01-17T12:47:34.426Z,2.40
2023-01-17T12:50:05.379Z,2.30
2023-01-17T12:52:46.682Z,2.38
2023-01-17T12:55:17.732Z,2.38
2023-01-17T12:57:46.157Z,2.65
2023-01-17T13:00:19.548Z,2.20
2023-01-17T13:02:50.440Z,2.28
2023-01-17T13:05:23.538Z,2.20
2023-01-17T13:07:54.779Z,2.38
2023-01-17T13:10:25.996Z,2.40
2023-01-17T13:12:53.534Z,2.30
2023-01-17T13:15:23.794Z,2.05
2023-01-17T13:17:52.004Z,2.20
2023-01-17T13:20:22.532Z,2.08
2023-01-17T13:22:50.102Z,2.10
2023-01-17T13:25:29.657Z,2.30
2023-01-17T13:28:15.048Z,1.75
2023-01-17T13:30:58.687Z,2.40
2023-01-17T13:33:38.016Z,2.45
2023-01-17T13:36:25.323Z,2.70
2023-01-17T13:39:01.863Z,2.35
2023-01-17T13:41:37.974Z,1.85
2023-01-17T13:44:24.306Z,2.28
2023-01-17T13:47:24.390Z,2.10
2023-01-17T13:49:56.242Z,2.47
2023-01-17T13:52:33.391Z,2.40
2023-01-17T13:55:01.820Z,2.20
2023-01-17T13:57:41.817Z,2.03
2023-01-17T14:00:52.238Z,2.30
2023-01-17T14:03:55.458Z,2.00
2023-01-17T14:06:34.506Z,2.10
2023-01-17T14:09:03.074Z,2.20
2023-01-17T14:11:33.561Z,2.10
2023-01-17T14:14:34.228Z,1.90
2023-01-17T14:17:46.631Z,2.10
2023-01-17T14:20:36.052Z,2.20
2023-01-17T14:23:14.942Z,2.30
2023-01-17T14:25:42.462Z,2.03
2023-01-17T14:28:22.056Z,2.17
2023-01-17T14:30:54.090Z,2.13
2023-01-17T14:33:26.073Z,2.03
2023-01-17T14:35:55.537Z,2.35
2023-01-17T14:38:25.172Z,2.30
2023-01-17T14:40:53.546Z,2.10
2023-01-17T14:43:21.497Z,1.90
2023-01-17T14:45:48.984Z,1.90
2023-01-17T14:48:16.925Z,2.15
2023-01-17T14:50:45.018Z,1.92
2023-01-17T14:53:20.353Z,2.00
2023-01-17T14:55:53.287Z,1.83
2023-01-17T14:58:21.416Z,1.80
2023-01-17T15:00:49.971Z,1.80
2023-01-17T15:03:17.696Z,2.20
2023-01-17T15:05:46.573Z,1.50
2023-01-17T15:08:14.554Z,2.03
2023-01-17T15:10:47.691Z,2.00
2023-01-17T15:13:19.432Z,1.90
2023-01-17T15:15:48.692Z,2.00
2023-01-17T15:18:25.727Z,2.45
2023-01-17T15:20:56.254Z,2.45
2023-01-17T15:23:24.180Z,2.03
2023-01-17T15:25:52.277Z,2.40
2023-01-17T15:28:21.327Z,2.30
2023-01-17T15:31:16.201Z,2.33
2023-01-17T15:33:44.699Z,2.20
2023-01-17T15:36:23.296Z,2.30
2023-01-17T15:38:55.162Z,2.10
2023-01-17T15:41:23.719Z,2.60
2023-01-17T15:43:57.351Z,2.47
2023-01-17T15:46:28.270Z,2.90
2023-01-17T15:49:08.698Z,3.30
2023-01-17T15:51:38.118Z,3.22
2023-01-17T15:54:34.449Z,3.00
2023-01-17T15:57:06.548Z,3.30
2023-01-17T15:59:42.817Z,3.10
2023-01-17T16:02:33.649Z,3.28
2023-01-17T16:05:01.387Z,2.90
2023-01-17T16:07:31.683Z,2.92
2023-01-17T16:10:03.053Z,3.13
2023-01-17T16:12:30.418Z,3.38
2023-01-17T16:15:11.731Z,3.28
2023-01-17T16:17:40.287Z,3.40
2023-01-17T16:20:15.870Z,3.00
2023-01-17T16:22:43.872Z,3.38
2023-01-17T16:25:14.705Z,3.47
2023-01-17T16:27:43.094Z,2.97
2023-01-17T16:30:15.160Z,3.25
2023-01-17T16:32:42.685Z,2.90
2023-01-17T16:35:14.288Z,2.83
2023-01-17T16:37:41.727Z,2.80
2023-01-17T16:40:10.439Z,2.70
2023-01-17T16:42:37.820Z,2.78
2023-01-17T16:45:05.895Z,2.60
2023-01-17T16:47:34.585Z,3.10
2023-01-17T16:50:02.140Z,2.63
2023-01-17T16:52:29.523Z,3.13
2023-01-17T16:54:56.899Z,2.72
2023-01-17T16:57:24.265Z,3.92
2023-01-17T16:59:52.243Z,2.90
2023-01-17T17:02:19.693Z,3.38
2023-01-17T17:04:48.430Z,4.03
2023-01-17T17:07:15.907Z,3.90
2023-01-17T17:09:43.310Z,3.80
2023-01-17T17:12:10.678Z,3.70
2023-01-17T17:14:38.162Z,4.30
2023-01-17T17:17:06.513Z,4.13
2023-01-17T17:19:34.390Z,3.88
2023-01-17T17:22:03.092Z,3.72
2023-01-17T17:24:30.482Z,3.50
2023-01-17T17:26:57.845Z,3.80
2023-01-17T17:29:25.312Z,3.50
2023-01-17T17:31:53.578Z,3.67
2023-01-17T17:34:22.291Z,3.55
2023-01-17T17:36:49.671Z,3.80
2023-01-17T17:39:18.364Z,4.18
2023-01-17T17:41:45.955Z,3.92
2023-01-17T17:44:13.529Z,3.50
2023-01-17T17:46:42.805Z,3.90
2023-01-17T17:49:10.243Z,3.80
2023-01-17T17:51:38.302Z,3.92
2023-01-17T17:54:06.618Z,3.90
2023-01-17T17:56:35.373Z,4.35
2023-01-17T17:59:03.244Z,3.67
2023-01-17T18:01:30.843Z,4.25
2023-01-17T18:04:03.006Z,4.55
2023-01-17T18:06:30.510Z,4.22
2023-01-17T18:08:57.883Z,4.63
2023-01-17T18:11:26.581Z,4.57
2023-01-17T18:13:55.912Z,4.55
2023-01-17T18:16:24.211Z,4.20
2023-01-17T18:18:52.657Z,4.60
2023-01-17T18:21:23.429Z,4.88
2023-01-17T18:23:51.697Z,5.00
2023-01-17T18:26:19.931Z,4.47
2023-01-17T18:28:47.357Z,4.80
2023-01-17T18:31:16.273Z,4.57
2023-01-17T18:33:43.646Z,5.20
2023-01-17T18:36:11.929Z,5.63
2023-01-17T18:38:39.537Z,5.75
2023-01-17T18:41:07.324Z,5.38
2023-01-17T18:43:35.091Z,4.78
2023-01-17T18:46:02.474Z,5.18
2023-01-17T18:48:31.142Z,4.95
2023-01-17T18:50:58.595Z,4.80
2023-01-17T18:53:25.987Z,4.78
2023-01-17T18:55:56.986Z,4.97
2023-01-17T18:58:24.557Z,4.90
2023-01-17T19:00:52.509Z,4.90
2023-01-17T19:03:20.319Z,5.03
2023-01-17T19:05:49.010Z,4.82
2023-01-17T19:08:16.587Z,5.00
2023-01-17T19:10:44.290Z,5.10
2023-01-17T19:13:11.757Z,4.97
2023-01-17T19:15:39.132Z,4.80
2023-01-17T19:18:06.588Z,5.28
2023-01-17T19:20:35.033Z,4.68
2023-01-17T19:23:03.757Z,5.13
2023-01-17T19:25:31.134Z,4.32
2023-01-17T19:27:58.761Z,5.10
2023-01-17T19:30:26.206Z,4.45
2023-01-17T19:32:53.580Z,4.90
2023-01-17T19:35:22.668Z,4.55
2023-01-17T19:37:51.635Z,5.03
2023-01-17T19:40:20.574Z,4.95
2023-01-17T19:42:48.027Z,5.13
2023-01-17T19:45:15.522Z,4.85
2023-01-17T19:47:42.881Z,5.97
2023-01-17T19:50:12.392Z,5.70
2023-01-17T19:52:39.922Z,5.65
2023-01-17T19:55:09.675Z,5.65
2023-01-17T19:57:40.448Z,5.72
2023-01-17T20:00:09.358Z,5.68
2023-01-17T20:02:38.073Z,5.88
2023-01-17T20:05:06.016Z,5.55
2023-01-17T20:07:33.626Z,6.35
2023-01-17T20:10:01.000Z,6.00
2023-01-17T20:12:28.379Z,6.45
2023-01-17T20:14:57.050Z,5.78
2023-01-17T20:17:24.416Z,6.05
2023-01-17T20:19:51.826Z,6.18
2023-01-17T20:22:19.209Z,6.60
2023-01-17T20:24:46.583Z,5.95
2023-01-17T20:27:13.966Z,6.18
2023-01-17T20:29:41.460Z,6.07
2023-01-17T20:32:10.154Z,6.03
2023-01-17T20:34:37.530Z,5.82
2023-01-17T20:37:04.903Z,5.50
2023-01-17T20:39:32.649Z,5.47
2023-01-17T20:42:00.052Z,5.55
2023-01-17T20:44:27.477Z,5.78
2023-01-17T20:46:54.861Z,5.35
2023-01-17T20:49:23.831Z,5.45
2023-01-17T20:51:51.243Z,5.53
2023-01-17T20:54:19.262Z,5.30
2023-01-17T20:56:47.266Z,5.18
2023-01-17T20:59:15.624Z,5.53
2023-01-17T21:01:44.270Z,5.53
2023-01-17T21:04:11.788Z,5.38
2023-01-17T21:06:41.216Z,5.10
2023-01-17T21:09:09.423Z,5.47
2023-01-17T21:11:37.452Z,5.88
2023-01-17T21:14:05.561Z,5.28
2023-01-17T21:16:34.099Z,5.22
2023-01-17T21:19:01.651Z,5.55
2023-01-17T21:21:29.747Z,5.32
2023-01-17T21:23:59.081Z,5.10
2023-01-17T21:26:27.149Z,4.43
2023-01-17T21:28:54.678Z,4.90
2023-01-17T21:31:23.789Z,5.00
2023-01-17T21:33:52.362Z,5.32
2023-01-17T21:36:19.886Z,5.22
2023-01-17T21:38:49.563Z,5.40
2023-01-17T21:41:18.780Z,5.63
2023-01-17T21:43:46.325Z,5.97
2023-01-17T21:46:13.851Z,6.45
2023-01-17T21:48:41.251Z,6.85
2023-01-17T21:51:09.017Z,6.45
2023-01-17T21:53:36.485Z,6.70
2023-01-17T21:56:21.735Z,7.18
2023-01-17T21:58:53.754Z,7.32
2023-01-17T22:01:22.502Z,7.93
2023-01-17T22:03:50.964Z,7.57
2023-01-17T22:06:18.428Z,8.43
2023-01-17T22:08:45.824Z,8.15
2023-01-17T22:11:14.230Z,8.73
2023-01-17T22:13:42.630Z,9.02
2023-01-17T22:16:12.700Z,9.25
2023-01-17T22:18:40.494Z,8.77
2023-01-17T22:21:08.756Z,9.07
2023-01-17T22:23:36.333Z,9.07
2023-01-17T22:26:04.564Z,8.73
2023-01-17T22:28:32.733Z,8.95
2023-01-17T22:31:00.450Z,8.52
2023-01-17T22:33:29.178Z,8.10
2023-01-17T22:35:59.454Z,8.25
2023-01-17T22:38:26.843Z,8.60
2023-01-17T22:40:55.136Z,8.35
2023-01-17T22:43:22.553Z,8.38
2023-01-17T22:45:49.944Z,8.27
2023-01-17T22:48:17.306Z,8.00
2023-01-17T22:50:46.235Z,8.20
2023-01-17T22:53:13.737Z,8.48
2023-01-17T22:55:41.128Z,6.80
2023-01-17T22:58:08.545Z,8.50
2023-01-17T23:00:35.999Z,7.20
2023-01-17T23:03:03.523Z,7.05
2023-01-17T23:05:31.011Z,7.18
2023-01-17T23:08:02.090Z,7.15
2023-01-17T23:10:47.534Z,7.10
2023-01-17T23:13:15.232Z,7.55
2023-01-17T23:16:00.057Z,7.00
2023-01-17T23:18:45.486Z,7.55
2023-01-17T23:21:12.857Z,7.20
2023-01-17T23:23:41.560Z,7.45
2023-01-17T23:26:08.950Z,7.55
2023-01-17T23:28:35.391Z,7.07
2023-01-17T23:31:04.776Z,6.90
2023-01-17T23:33:32.231Z,6.95
2023-01-17T23:35:59.637Z,7.60
2023-01-17T23:38:26.165Z,6.90
2023-01-17T23:41:12.765Z,7.75
2023-01-17T23:43:40.121Z,7.25
2023-01-17T23:46:10.998Z,6.72
2023-01-17T23:48:38.426Z,7.55
2023-01-17T23:51:07.797Z,7.35
2023-01-17T23:53:35.486Z,7.65
2023-01-17T23:56:07.055Z,7.97
2023-01-17T23:58:35.026Z,7.75
